sensor_id;sensor_type;location;lat;lon;timestamp;P1;durP1;ratioP1;P2;durP2;ratioP2
30874;SDS011;17581;43.222;27.924;2023-02-01T00:01:38;27.25;;;13.95;;
30874;SDS011;17581;43.222;27.924;2023-02-01T00:04:04;21.75;;;12.48;;
30874;SDS011;17581;43.222;27.924;2023-02-01T00:06:30;32.25;;;13.68;;
30874;SDS011;17581;43.222;27.924;2023-02-01T00:08:55;25.88;;;13.10;;
30874;SDS011;17581;43.222;27.924;2023-02-01T00:11:21;22.15;;;13.38;;
30874;SDS011;17581;43.222;27.924;2023-02-01T00:13:47;24.92;;;14.05;;
30874;SDS011;17581;43.222;27.924;2023-02-01T00:18:39;24.40;;;13.60;;
30874;SDS011;17581;43.222;27.924;2023-02-01T00:21:04;22.63;;;13.95;;
30874;SDS011;17581;43.222;27.924;2023-02-01T00:23:39;23.02;;;12.93;;
30874;SDS011;17581;43.222;27.924;2023-02-01T00:26:06;23.42;;;14.25;;
30874;SDS011;17581;43.222;27.924;2023-02-01T00:28:38;24.05;;;13.80;;
30874;SDS011;17581;43.222;27.924;2023-02-01T00:31:03;24.73;;;12.93;;
30874;SDS011;17581;43.222;27.924;2023-02-01T00:33:29;37.80;;;19.02;;
30874;SDS011;17581;43.222;27.924;2023-02-01T00:36:00;25.17;;;13.15;;
30874;SDS011;17581;43.222;27.924;2023-02-01T00:38:28;23.58;;;13.52;;
30874;SDS011;17581;43.222;27.924;2023-02-01T00:40:54;31.83;;;14.63;;
30874;SDS011;17581;43.222;27.924;2023-02-01T00:43:26;25.90;;;14.73;;
30874;SDS011;17581;43.222;27.924;2023-02-01T00:45:51;26.05;;;14.10;;
30874;SDS011;17581;43.222;27.924;2023-02-01T00:48:17;24.63;;;13.35;;
30874;SDS011;17581;43.222;27.924;2023-02-01T00:50:43;26.25;;;14.60;;
30874;SDS011;17581;43.222;27.924;2023-02-01T00:53:09;25.73;;;15.25;;
30874;SDS011;17581;43.222;27.924;2023-02-01T00:55:35;22.08;;;12.77;;
30874;SDS011;17581;43.222;27.924;2023-02-01T00:58:01;26.77;;;13.63;;
30874;SDS011;17581;43.222;27.924;2023-02-01T01:00:26;24.63;;;14.07;;
30874;SDS011;17581;43.222;27.924;2023-02-01T01:02:51;28.58;;;14.00;;
30874;SDS011;17581;43.222;27.924;2023-02-01T01:05:17;26.02;;;15.05;;
30874;SDS011;17581;43.222;27.924;2023-02-01T01:07:43;23.98;;;14.10;;
30874;SDS011;17581;43.222;27.924;2023-02-01T01:10:08;25.63;;;13.82;;
30874;SDS011;17581;43.222;27.924;2023-02-01T01:12:34;21.45;;;13.50;;
30874;SDS011;17581;43.222;27.924;2023-02-01T01:14:59;26.73;;;15.48;;
30874;SDS011;17581;43.222;27.924;2023-02-01T01:17:25;26.30;;;13.25;;
30874;SDS011;17581;43.222;27.924;2023-02-01T01:19:50;26.48;;;12.98;;
30874;SDS011;17581;43.222;27.924;2023-02-01T01:22:16;28.35;;;14.60;;
30874;SDS011;17581;43.222;27.924;2023-02-01T01:24:41;27.90;;;13.82;;
30874;SDS011;17581;43.222;27.924;2023-02-01T01:27:06;22.80;;;13.20;;
30874;SDS011;17581;43.222;27.924;2023-02-01T01:29:32;25.08;;;14.63;;
30874;SDS011;17581;43.222;27.924;2023-02-01T01:31:57;24.95;;;13.48;;
30874;SDS011;17581;43.222;27.924;2023-02-01T01:34:23;25.40;;;13.60;;
30874;SDS011;17581;43.222;27.924;2023-02-01T01:36:48;25.30;;;14.50;;
30874;SDS011;17581;43.222;27.924;2023-02-01T01:39:14;29.38;;;16.58;;
30874;SDS011;17581;43.222;27.924;2023-02-01T01:41:39;26.52;;;15.02;;
30874;SDS011;17581;43.222;27.924;2023-02-01T01:44:05;29.38;;;14.68;;
30874;SDS011;17581;43.222;27.924;2023-02-01T01:46:34;24.40;;;13.85;;
30874;SDS011;17581;43.222;27.924;2023-02-01T01:54:16;26.25;;;14.43;;
30874;SDS011;17581;43.222;27.924;2023-02-01T01:56:46;29.70;;;15.60;;
30874;SDS011;17581;43.222;27.924;2023-02-01T01:59:16;27.30;;;14.85;;
30874;SDS011;17581;43.222;27.924;2023-02-01T02:01:43;24.92;;;14.07;;
30874;SDS011;17581;43.222;27.924;2023-02-01T02:04:09;26.92;;;15.07;;
30874;SDS011;17581;43.222;27.924;2023-02-01T02:09:25;24.00;;;13.43;;
30874;SDS011;17581;43.222;27.924;2023-02-01T02:11:50;23.23;;;13.90;;
30874;SDS011;17581;43.222;27.924;2023-02-01T02:14:16;27.67;;;15.43;;
30874;SDS011;17581;43.222;27.924;2023-02-01T02:39:30;36.28;;;15.23;;
30874;SDS011;17581;43.222;27.924;2023-02-01T02:48:51;34.33;;;16.02;;
30874;SDS011;17581;43.222;27.924;2023-02-01T02:54:33;32.20;;;16.40;;
30874;SDS011;17581;43.222;27.924;2023-02-01T02:57:31;27.65;;;14.95;;
30874;SDS011;17581;43.222;27.924;2023-02-01T03:00:22;26.50;;;15.25;;
30874;SDS011;17581;43.222;27.924;2023-02-01T03:03:10;26.77;;;16.35;;
30874;SDS011;17581;43.222;27.924;2023-02-01T03:05:54;33.00;;;16.13;;
30874;SDS011;17581;43.222;27.924;2023-02-01T03:08:24;27.73;;;14.48;;
30874;SDS011;17581;43.222;27.924;2023-02-01T03:11:00;30.00;;;16.13;;
30874;SDS011;17581;43.222;27.924;2023-02-01T03:16:20;30.60;;;16.98;;
30874;SDS011;17581;43.222;27.924;2023-02-01T03:24:23;28.42;;;15.25;;
30874;SDS011;17581;43.222;27.924;2023-02-01T03:27:00;31.02;;;16.35;;
30874;SDS011;17581;43.222;27.924;2023-02-01T03:29:45;38.58;;;18.80;;
30874;SDS011;17581;43.222;27.924;2023-02-01T03:32:18;31.77;;;16.13;;
30874;SDS011;17581;43.222;27.924;2023-02-01T03:34:44;32.90;;;16.58;;
30874;SDS011;17581;43.222;27.924;2023-02-01T03:37:10;31.25;;;16.23;;
30874;SDS011;17581;43.222;27.924;2023-02-01T03:42:10;25.95;;;15.73;;
30874;SDS011;17581;43.222;27.924;2023-02-01T03:44:44;27.20;;;16.20;;
30874;SDS011;17581;43.222;27.924;2023-02-01T03:47:20;28.25;;;17.13;;
30874;SDS011;17581;43.222;27.924;2023-02-01T03:52:30;29.13;;;17.10;;
30874;SDS011;17581;43.222;27.924;2023-02-01T03:55:01;30.52;;;16.70;;
30874;SDS011;17581;43.222;27.924;2023-02-01T03:57:29;33.78;;;16.80;;
30874;SDS011;17581;43.222;27.924;2023-02-01T04:00:07;29.33;;;16.25;;
30874;SDS011;17581;43.222;27.924;2023-02-01T04:02:36;38.47;;;17.58;;
30874;SDS011;17581;43.222;27.924;2023-02-01T04:05:02;28.35;;;16.10;;
30874;SDS011;17581;43.222;27.924;2023-02-01T04:07:27;27.75;;;16.88;;
30874;SDS011;17581;43.222;27.924;2023-02-01T04:09:53;31.23;;;17.13;;
30874;SDS011;17581;43.222;27.924;2023-02-01T04:12:18;35.47;;;18.27;;
30874;SDS011;17581;43.222;27.924;2023-02-01T04:14:43;29.38;;;17.90;;
30874;SDS011;17581;43.222;27.924;2023-02-01T04:17:09;38.50;;;17.52;;
30874;SDS011;17581;43.222;27.924;2023-02-01T04:19:34;33.03;;;17.95;;
30874;SDS011;17581;43.222;27.924;2023-02-01T04:22:00;33.70;;;18.13;;
30874;SDS011;17581;43.222;27.924;2023-02-01T04:24:25;36.78;;;19.13;;
30874;SDS011;17581;43.222;27.924;2023-02-01T04:26:50;33.67;;;16.85;;
30874;SDS011;17581;43.222;27.924;2023-02-01T04:29:16;39.10;;;17.73;;
30874;SDS011;17581;43.222;27.924;2023-02-01T04:31:41;32.60;;;18.20;;
30874;SDS011;17581;43.222;27.924;2023-02-01T04:34:07;40.50;;;19.20;;
30874;SDS011;17581;43.222;27.924;2023-02-01T04:36:33;31.05;;;17.67;;
30874;SDS011;17581;43.222;27.924;2023-02-01T04:38:59;33.25;;;17.58;;
30874;SDS011;17581;43.222;27.924;2023-02-01T04:41:24;30.67;;;16.85;;
30874;SDS011;17581;43.222;27.924;2023-02-01T04:43:50;33.88;;;17.20;;
30874;SDS011;17581;43.222;27.924;2023-02-01T04:46:16;37.97;;;17.67;;
30874;SDS011;17581;43.222;27.924;2023-02-01T04:48:42;27.75;;;16.63;;
30874;SDS011;17581;43.222;27.924;2023-02-01T04:51:08;35.80;;;17.38;;
30874;SDS011;17581;43.222;27.924;2023-02-01T04:53:34;34.42;;;19.95;;
30874;SDS011;17581;43.222;27.924;2023-02-01T04:56:00;34.03;;;18.65;;
30874;SDS011;17581;43.222;27.924;2023-02-01T04:58:25;36.13;;;17.48;;
30874;SDS011;17581;43.222;27.924;2023-02-01T05:00:51;51.00;;;19.25;;
30874;SDS011;17581;43.222;27.924;2023-02-01T05:03:17;46.17;;;18.90;;
30874;SDS011;17581;43.222;27.924;2023-02-01T05:05:43;48.67;;;18.08;;
30874;SDS011;17581;43.222;27.924;2023-02-01T05:08:08;44.83;;;19.27;;
30874;SDS011;17581;43.222;27.924;2023-02-01T05:10:34;35.33;;;18.42;;
30874;SDS011;17581;43.222;27.924;2023-02-01T05:12:59;43.17;;;19.05;;
30874;SDS011;17581;43.222;27.924;2023-02-01T05:15:43;32.38;;;19.08;;
30874;SDS011;17581;43.222;27.924;2023-02-01T05:18:11;36.10;;;18.55;;
30874;SDS011;17581;43.222;27.924;2023-02-01T05:20:36;37.90;;;18.80;;
30874;SDS011;17581;43.222;27.924;2023-02-01T05:23:02;34.88;;;19.38;;
30874;SDS011;17581;43.222;27.924;2023-02-01T05:25:27;44.50;;;21.35;;
30874;SDS011;17581;43.222;27.924;2023-02-01T05:27:53;32.83;;;17.30;;
30874;SDS011;17581;43.222;27.924;2023-02-01T05:30:18;41.75;;;19.95;;
30874;SDS011;17581;43.222;27.924;2023-02-01T05:32:44;37.42;;;19.90;;
30874;SDS011;17581;43.222;27.924;2023-02-01T05:35:09;40.38;;;21.02;;
30874;SDS011;17581;43.222;27.924;2023-02-01T05:37:35;32.30;;;17.27;;
30874;SDS011;17581;43.222;27.924;2023-02-01T05:40:00;28.33;;;18.45;;
30874;SDS011;17581;43.222;27.924;2023-02-01T05:42:26;35.47;;;18.05;;
30874;SDS011;17581;43.222;27.924;2023-02-01T05:44:51;36.85;;;17.38;;
30874;SDS011;17581;43.222;27.924;2023-02-01T05:47:16;35.75;;;19.20;;
30874;SDS011;17581;43.222;27.924;2023-02-01T05:49:42;38.50;;;18.73;;
30874;SDS011;17581;43.222;27.924;2023-02-01T05:52:08;38.63;;;19.73;;
30874;SDS011;17581;43.222;27.924;2023-02-01T05:54:33;32.88;;;17.25;;
30874;SDS011;17581;43.222;27.924;2023-02-01T05:56:59;40.15;;;18.10;;
30874;SDS011;17581;43.222;27.924;2023-02-01T05:59:24;37.80;;;19.63;;
30874;SDS011;17581;43.222;27.924;2023-02-01T06:01:50;37.85;;;18.63;;
30874;SDS011;17581;43.222;27.924;2023-02-01T06:04:15;45.55;;;20.63;;
30874;SDS011;17581;43.222;27.924;2023-02-01T06:06:40;39.97;;;20.65;;
30874;SDS011;17581;43.222;27.924;2023-02-01T06:09:06;36.72;;;18.92;;
30874;SDS011;17581;43.222;27.924;2023-02-01T06:11:31;35.65;;;19.08;;
30874;SDS011;17581;43.222;27.924;2023-02-01T06:13:57;39.13;;;19.10;;
30874;SDS011;17581;43.222;27.924;2023-02-01T06:16:22;40.35;;;19.77;;
30874;SDS011;17581;43.222;27.924;2023-02-01T06:18:48;39.72;;;18.42;;
30874;SDS011;17581;43.222;27.924;2023-02-01T06:21:14;37.65;;;19.55;;
30874;SDS011;17581;43.222;27.924;2023-02-01T06:23:48;32.38;;;17.67;;
30874;SDS011;17581;43.222;27.924;2023-02-01T06:26:14;35.50;;;19.00;;
30874;SDS011;17581;43.222;27.924;2023-02-01T06:28:39;32.22;;;18.60;;
30874;SDS011;17581;43.222;27.924;2023-02-01T06:31:05;39.80;;;17.75;;
30874;SDS011;17581;43.222;27.924;2023-02-01T06:33:35;40.88;;;18.88;;
30874;SDS011;17581;43.222;27.924;2023-02-01T06:36:02;32.35;;;19.00;;
30874;SDS011;17581;43.222;27.924;2023-02-01T06:38:31;32.80;;;19.13;;
30874;SDS011;17581;43.222;27.924;2023-02-01T06:40:59;34.03;;;18.73;;
30874;SDS011;17581;43.222;27.924;2023-02-01T06:43:25;35.45;;;18.45;;
30874;SDS011;17581;43.222;27.924;2023-02-01T06:45:52;36.38;;;20.27;;
30874;SDS011;17581;43.222;27.924;2023-02-01T06:48:18;42.78;;;21.08;;
30874;SDS011;17581;43.222;27.924;2023-02-01T06:50:44;45.50;;;21.45;;
30874;SDS011;17581;43.222;27.924;2023-02-01T06:53:10;41.33;;;21.60;;
30874;SDS011;17581;43.222;27.924;2023-02-01T06:55:36;45.65;;;21.25;;
30874;SDS011;17581;43.222;27.924;2023-02-01T06:58:01;32.80;;;20.02;;
30874;SDS011;17581;43.222;27.924;2023-02-01T07:00:27;31.92;;;19.15;;
30874;SDS011;17581;43.222;27.924;2023-02-01T07:02:53;37.38;;;20.30;;
30874;SDS011;17581;43.222;27.924;2023-02-01T07:05:19;34.45;;;19.23;;
30874;SDS011;17581;43.222;27.924;2023-02-01T07:07:44;46.72;;;21.48;;
30874;SDS011;17581;43.222;27.924;2023-02-01T07:10:10;51.95;;;25.17;;
30874;SDS011;17581;43.222;27.924;2023-02-01T07:12:36;53.83;;;27.40;;
30874;SDS011;17581;43.222;27.924;2023-02-01T07:15:02;34.85;;;21.17;;
30874;SDS011;17581;43.222;27.924;2023-02-01T07:17:28;56.40;;;31.63;;
30874;SDS011;17581;43.222;27.924;2023-02-01T07:19:54;38.90;;;19.00;;
30874;SDS011;17581;43.222;27.924;2023-02-01T07:22:20;30.45;;;14.65;;
30874;SDS011;17581;43.222;27.924;2023-02-01T07:24:45;28.90;;;14.27;;
30874;SDS011;17581;43.222;27.924;2023-02-01T07:27:11;28.05;;;12.95;;
30874;SDS011;17581;43.222;27.924;2023-02-01T07:29:36;20.05;;;12.15;;
30874;SDS011;17581;43.222;27.924;2023-02-01T07:32:02;24.30;;;13.20;;
30874;SDS011;17581;43.222;27.924;2023-02-01T07:34:27;27.88;;;12.30;;
30874;SDS011;17581;43.222;27.924;2023-02-01T07:36:53;25.92;;;13.43;;
30874;SDS011;17581;43.222;27.924;2023-02-01T07:39:19;32.30;;;13.85;;
30874;SDS011;17581;43.222;27.924;2023-02-01T07:41:45;49.63;;;19.88;;
30874;SDS011;17581;43.222;27.924;2023-02-01T07:44:11;31.90;;;15.90;;
30874;SDS011;17581;43.222;27.924;2023-02-01T07:46:36;28.50;;;16.17;;
30874;SDS011;17581;43.222;27.924;2023-02-01T07:49:03;26.83;;;13.95;;
30874;SDS011;17581;43.222;27.924;2023-02-01T07:51:29;28.38;;;15.70;;
30874;SDS011;17581;43.222;27.924;2023-02-01T07:53:54;24.65;;;15.05;;
30874;SDS011;17581;43.222;27.924;2023-02-01T07:56:20;29.98;;;16.58;;
30874;SDS011;17581;43.222;27.924;2023-02-01T07:58:51;33.92;;;15.68;;
30874;SDS011;17581;43.222;27.924;2023-02-01T08:01:25;30.17;;;16.42;;
30874;SDS011;17581;43.222;27.924;2023-02-01T08:03:52;25.60;;;15.10;;
30874;SDS011;17581;43.222;27.924;2023-02-01T08:06:20;31.98;;;16.88;;
30874;SDS011;17581;43.222;27.924;2023-02-01T08:08:47;28.42;;;16.63;;
30874;SDS011;17581;43.222;27.924;2023-02-01T08:11:16;26.90;;;16.90;;
30874;SDS011;17581;43.222;27.924;2023-02-01T08:13:43;26.70;;;16.40;;
30874;SDS011;17581;43.222;27.924;2023-02-01T08:16:10;34.47;;;17.13;;
30874;SDS011;17581;43.222;27.924;2023-02-01T08:18:37;27.92;;;16.27;;
30874;SDS011;17581;43.222;27.924;2023-02-01T08:21:04;24.38;;;12.68;;
30874;SDS011;17581;43.222;27.924;2023-02-01T08:23:30;27.67;;;11.52;;
30874;SDS011;17581;43.222;27.924;2023-02-01T08:26:03;19.58;;;11.82;;
30874;SDS011;17581;43.222;27.924;2023-02-01T08:28:32;23.52;;;13.35;;
30874;SDS011;17581;43.222;27.924;2023-02-01T08:30:58;21.63;;;11.90;;
30874;SDS011;17581;43.222;27.924;2023-02-01T08:33:23;24.00;;;12.57;;
30874;SDS011;17581;43.222;27.924;2023-02-01T08:35:49;26.42;;;14.40;;
30874;SDS011;17581;43.222;27.924;2023-02-01T08:38:14;34.45;;;17.52;;
30874;SDS011;17581;43.222;27.924;2023-02-01T08:40:40;26.23;;;15.43;;
30874;SDS011;17581;43.222;27.924;2023-02-01T08:43:06;45.30;;;24.45;;
30874;SDS011;17581;43.222;27.924;2023-02-01T08:45:32;32.00;;;14.65;;
30874;SDS011;17581;43.222;27.924;2023-02-01T08:47:58;23.08;;;12.82;;
30874;SDS011;17581;43.222;27.924;2023-02-01T08:50:24;21.35;;;12.18;;
30874;SDS011;17581;43.222;27.924;2023-02-01T08:52:50;34.85;;;13.13;;
30874;SDS011;17581;43.222;27.924;2023-02-01T08:55:16;25.92;;;13.98;;
30874;SDS011;17581;43.222;27.924;2023-02-01T08:57:42;27.35;;;14.25;;
30874;SDS011;17581;43.222;27.924;2023-02-01T09:00:09;27.95;;;13.10;;
30874;SDS011;17581;43.222;27.924;2023-02-01T09:02:37;27.30;;;13.35;;
30874;SDS011;17581;43.222;27.924;2023-02-01T09:05:03;21.92;;;12.73;;
30874;SDS011;17581;43.222;27.924;2023-02-01T09:07:29;29.20;;;14.18;;
30874;SDS011;17581;43.222;27.924;2023-02-01T09:09:55;30.52;;;15.02;;
30874;SDS011;17581;43.222;27.924;2023-02-01T09:12:21;42.20;;;16.00;;
30874;SDS011;17581;43.222;27.924;2023-02-01T09:14:47;25.73;;;15.85;;
30874;SDS011;17581;43.222;27.924;2023-02-01T09:17:13;23.50;;;14.70;;
30874;SDS011;17581;43.222;27.924;2023-02-01T09:19:38;25.77;;;15.73;;
30874;SDS011;17581;43.222;27.924;2023-02-01T09:22:04;24.35;;;14.95;;
30874;SDS011;17581;43.222;27.924;2023-02-01T09:24:29;37.80;;;16.20;;
30874;SDS011;17581;43.222;27.924;2023-02-01T09:26:55;32.85;;;14.02;;
30874;SDS011;17581;43.222;27.924;2023-02-01T09:29:20;30.75;;;14.05;;
30874;SDS011;17581;43.222;27.924;2023-02-01T09:31:46;26.23;;;12.27;;
30874;SDS011;17581;43.222;27.924;2023-02-01T09:34:11;39.55;;;12.70;;
30874;SDS011;17581;43.222;27.924;2023-02-01T09:36:37;23.55;;;12.65;;
30874;SDS011;17581;43.222;27.924;2023-02-01T09:39:02;22.88;;;11.20;;
30874;SDS011;17581;43.222;27.924;2023-02-01T09:47:25;21.42;;;10.25;;
30874;SDS011;17581;43.222;27.924;2023-02-01T09:52:36;30.25;;;11.38;;
30874;SDS011;17581;43.222;27.924;2023-02-01T09:55:24;29.67;;;10.40;;
30874;SDS011;17581;43.222;27.924;2023-02-01T09:58:04;16.42;;;9.73;;
30874;SDS011;17581;43.222;27.924;2023-02-01T10:00:34;21.02;;;10.35;;
30874;SDS011;17581;43.222;27.924;2023-02-01T10:03:02;20.02;;;10.35;;
30874;SDS011;17581;43.222;27.924;2023-02-01T10:08:09;19.95;;;9.35;;
30874;SDS011;17581;43.222;27.924;2023-02-01T10:10:42;24.87;;;9.10;;
30874;SDS011;17581;43.222;27.924;2023-02-01T10:21:41;13.00;;;8.98;;
30874;SDS011;17581;43.222;27.924;2023-02-01T10:27:27;18.58;;;8.75;;
30874;SDS011;17581;43.222;27.924;2023-02-01T10:29:59;14.52;;;7.80;;
30874;SDS011;17581;43.222;27.924;2023-02-01T10:32:30;18.83;;;8.77;;
30874;SDS011;17581;43.222;27.924;2023-02-01T10:34:58;25.45;;;9.43;;
30874;SDS011;17581;43.222;27.924;2023-02-01T10:37:29;21.27;;;10.25;;
30874;SDS011;17581;43.222;27.924;2023-02-01T10:39:57;21.17;;;8.97;;
30874;SDS011;17581;43.222;27.924;2023-02-01T10:42:28;18.00;;;9.40;;
30874;SDS011;17581;43.222;27.924;2023-02-01T10:44:56;15.40;;;8.30;;
30874;SDS011;17581;43.222;27.924;2023-02-01T10:47:25;18.77;;;8.55;;
30874;SDS011;17581;43.222;27.924;2023-02-01T10:55:50;21.33;;;10.32;;
30874;SDS011;17581;43.222;27.924;2023-02-01T10:58:19;17.08;;;9.23;;
30874;SDS011;17581;43.222;27.924;2023-02-01T11:00:54;11.15;;;6.63;;
30874;SDS011;17581;43.222;27.924;2023-02-01T11:14:16;13.93;;;6.80;;
30874;SDS011;17581;43.222;27.924;2023-02-01T11:16:54;13.98;;;5.97;;
30874;SDS011;17581;43.222;27.924;2023-02-01T11:19:23;11.00;;;6.20;;
30874;SDS011;17581;43.222;27.924;2023-02-01T11:21:51;13.68;;;6.55;;
30874;SDS011;17581;43.222;27.924;2023-02-01T11:24:26;10.90;;;6.20;;
30874;SDS011;17581;43.222;27.924;2023-02-01T11:26:56;13.40;;;7.80;;
30874;SDS011;17581;43.222;27.924;2023-02-01T11:29:24;20.88;;;7.75;;
30874;SDS011;17581;43.222;27.924;2023-02-01T11:31:57;19.50;;;9.73;;
30874;SDS011;17581;43.222;27.924;2023-02-01T11:34:25;17.52;;;7.85;;
30874;SDS011;17581;43.222;27.924;2023-02-01T11:36:58;17.85;;;6.22;;
30874;SDS011;17581;43.222;27.924;2023-02-01T11:39:26;11.52;;;5.53;;
30874;SDS011;17581;43.222;27.924;2023-02-01T11:42:05;20.70;;;5.78;;
30874;SDS011;17581;43.222;27.924;2023-02-01T11:44:38;15.95;;;5.18;;
30874;SDS011;17581;43.222;27.924;2023-02-01T11:47:18;12.98;;;6.03;;
30874;SDS011;17581;43.222;27.924;2023-02-01T11:49:45;8.93;;;5.20;;
30874;SDS011;17581;43.222;27.924;2023-02-01T11:55:08;27.48;;;6.07;;
30874;SDS011;17581;43.222;27.924;2023-02-01T12:06:18;12.02;;;6.18;;
30874;SDS011;17581;43.222;27.924;2023-02-01T12:17:51;18.10;;;6.20;;
30874;SDS011;17581;43.222;27.924;2023-02-01T12:20:28;14.55;;;4.20;;
30874;SDS011;17581;43.222;27.924;2023-02-01T12:23:10;10.85;;;4.88;;
30874;SDS011;17581;43.222;27.924;2023-02-01T12:31:05;16.00;;;5.15;;
30874;SDS011;17581;43.222;27.924;2023-02-01T12:50:18;12.02;;;6.13;;
30874;SDS011;17581;43.222;27.924;2023-02-01T12:52:51;10.43;;;4.75;;
30874;SDS011;17581;43.222;27.924;2023-02-01T12:57:53;9.93;;;4.45;;
30874;SDS011;17581;43.222;27.924;2023-02-01T13:00:34;14.32;;;4.45;;
30874;SDS011;17581;43.222;27.924;2023-02-01T13:05:45;12.95;;;6.35;;
30874;SDS011;17581;43.222;27.924;2023-02-01T13:08:21;12.10;;;5.00;;
30874;SDS011;17581;43.222;27.924;2023-02-01T13:10:56;12.90;;;4.45;;
30874;SDS011;17581;43.222;27.924;2023-02-01T13:13:32;9.65;;;3.65;;
30874;SDS011;17581;43.222;27.924;2023-02-01T13:16:28;7.47;;;3.83;;
30874;SDS011;17581;43.222;27.924;2023-02-01T13:25:12;14.50;;;5.57;;
30874;SDS011;17581;43.222;27.924;2023-02-01T13:27:41;8.13;;;4.93;;
30874;SDS011;17581;43.222;27.924;2023-02-01T13:30:21;7.60;;;4.78;;
30874;SDS011;17581;43.222;27.924;2023-02-01T13:35:39;9.15;;;4.88;;
30874;SDS011;17581;43.222;27.924;2023-02-01T13:38:32;13.02;;;4.72;;
30874;SDS011;17581;43.222;27.924;2023-02-01T13:41:11;10.43;;;5.03;;
30874;SDS011;17581;43.222;27.924;2023-02-01T13:43:49;7.10;;;4.10;;
30874;SDS011;17581;43.222;27.924;2023-02-01T13:46:18;10.65;;;4.03;;
30874;SDS011;17581;43.222;27.924;2023-02-01T13:48:55;13.93;;;4.18;;
30874;SDS011;17581;43.222;27.924;2023-02-01T13:54:06;10.05;;;3.78;;
30874;SDS011;17581;43.222;27.924;2023-02-01T13:56:41;9.40;;;3.83;;
30874;SDS011;17581;43.222;27.924;2023-02-01T14:05:08;11.07;;;4.72;;
30874;SDS011;17581;43.222;27.924;2023-02-01T14:07:36;12.23;;;4.85;;
30874;SDS011;17581;43.222;27.924;2023-02-01T14:13:29;9.02;;;4.13;;
30874;SDS011;17581;43.222;27.924;2023-02-01T14:32:22;9.80;;;4.82;;
30874;SDS011;17581;43.222;27.924;2023-02-01T14:34:53;9.07;;;4.43;;
30874;SDS011;17581;43.222;27.924;2023-02-01T14:39:58;14.20;;;5.13;;
30874;SDS011;17581;43.222;27.924;2023-02-01T14:44:55;10.82;;;5.50;;
30874;SDS011;17581;43.222;27.924;2023-02-01T14:47:39;12.35;;;4.82;;
30874;SDS011;17581;43.222;27.924;2023-02-01T14:55:59;18.23;;;7.90;;
30874;SDS011;17581;43.222;27.924;2023-02-01T14:58:40;17.67;;;6.82;;
30874;SDS011;17581;43.222;27.924;2023-02-01T15:01:25;11.82;;;6.63;;
30874;SDS011;17581;43.222;27.924;2023-02-01T15:04:06;19.80;;;8.05;;
30874;SDS011;17581;43.222;27.924;2023-02-01T15:06:46;19.38;;;7.78;;
30874;SDS011;17581;43.222;27.924;2023-02-01T15:09:25;19.20;;;10.00;;
30874;SDS011;17581;43.222;27.924;2023-02-01T15:17:35;28.63;;;10.98;;
30874;SDS011;17581;43.222;27.924;2023-02-01T15:22:29;30.20;;;11.15;;
30874;SDS011;17581;43.222;27.924;2023-02-01T15:24:56;29.65;;;13.45;;
30874;SDS011;17581;43.222;27.924;2023-02-01T15:27:26;47.88;;;17.35;;
30874;SDS011;17581;43.222;27.924;2023-02-01T15:29:53;39.60;;;17.90;;
30874;SDS011;17581;43.222;27.924;2023-02-01T15:32:31;48.40;;;16.90;;
30874;SDS011;17581;43.222;27.924;2023-02-01T15:34:59;38.30;;;18.13;;
30874;SDS011;17581;43.222;27.924;2023-02-01T15:37:25;35.17;;;17.50;;
30874;SDS011;17581;43.222;27.924;2023-02-01T15:43:03;25.70;;;12.70;;
30874;SDS011;17581;43.222;27.924;2023-02-01T15:45:29;27.80;;;13.02;;
30874;SDS011;17581;43.222;27.924;2023-02-01T15:47:58;46.22;;;13.55;;
30874;SDS011;17581;43.222;27.924;2023-02-01T15:50:24;64.38;;;16.35;;
30874;SDS011;17581;43.222;27.924;2023-02-01T15:52:52;35.47;;;12.48;;
30874;SDS011;17581;43.222;27.924;2023-02-01T15:57:47;27.05;;;10.05;;
30874;SDS011;17581;43.222;27.924;2023-02-01T16:00:28;31.65;;;11.40;;
30874;SDS011;17581;43.222;27.924;2023-02-01T16:03:04;14.85;;;8.48;;
30874;SDS011;17581;43.222;27.924;2023-02-01T16:10:43;26.77;;;11.02;;
30874;SDS011;17581;43.222;27.924;2023-02-01T16:13:11;30.47;;;12.17;;
30874;SDS011;17581;43.222;27.924;2023-02-01T16:15:38;32.10;;;12.40;;
30874;SDS011;17581;43.222;27.924;2023-02-01T16:18:04;25.90;;;11.20;;
30874;SDS011;17581;43.222;27.924;2023-02-01T16:20:32;34.22;;;12.85;;
30874;SDS011;17581;43.222;27.924;2023-02-01T16:23:00;28.58;;;13.50;;
30874;SDS011;17581;43.222;27.924;2023-02-01T16:25:27;32.85;;;11.38;;
30874;SDS011;17581;43.222;27.924;2023-02-01T16:27:53;34.92;;;15.23;;
30874;SDS011;17581;43.222;27.924;2023-02-01T16:30:19;28.48;;;15.65;;
30874;SDS011;17581;43.222;27.924;2023-02-01T16:32:57;41.60;;;17.88;;
30874;SDS011;17581;43.222;27.924;2023-02-01T16:35:25;40.95;;;19.85;;
30874;SDS011;17581;43.222;27.924;2023-02-01T16:37:53;39.08;;;19.35;;
30874;SDS011;17581;43.222;27.924;2023-02-01T16:40:19;48.50;;;22.95;;
30874;SDS011;17581;43.222;27.924;2023-02-01T16:42:50;43.30;;;20.42;;
30874;SDS011;17581;43.222;27.924;2023-02-01T16:45:16;35.13;;;17.58;;
30874;SDS011;17581;43.222;27.924;2023-02-01T16:47:45;38.53;;;19.50;;
30874;SDS011;17581;43.222;27.924;2023-02-01T16:50:17;47.85;;;22.30;;
30874;SDS011;17581;43.222;27.924;2023-02-01T16:52:45;44.20;;;19.33;;
30874;SDS011;17581;43.222;27.924;2023-02-01T16:55:12;23.73;;;15.73;;
30874;SDS011;17581;43.222;27.924;2023-02-01T16:57:41;34.45;;;16.73;;
30874;SDS011;17581;43.222;27.924;2023-02-01T17:00:08;46.85;;;20.10;;
30874;SDS011;17581;43.222;27.924;2023-02-01T17:02:38;40.17;;;20.05;;
30874;SDS011;17581;43.222;27.924;2023-02-01T17:05:07;51.90;;;18.35;;
30874;SDS011;17581;43.222;27.924;2023-02-01T17:07:33;51.75;;;20.20;;
30874;SDS011;17581;43.222;27.924;2023-02-01T17:10:00;62.97;;;24.63;;
30874;SDS011;17581;43.222;27.924;2023-02-01T17:12:28;60.42;;;22.65;;
30874;SDS011;17581;43.222;27.924;2023-02-01T17:14:57;63.05;;;25.92;;
30874;SDS011;17581;43.222;27.924;2023-02-01T17:17:25;81.15;;;36.10;;
30874;SDS011;17581;43.222;27.924;2023-02-01T17:19:55;79.35;;;41.17;;
30874;SDS011;17581;43.222;27.924;2023-02-01T17:22:22;87.65;;;37.47;;
30874;SDS011;17581;43.222;27.924;2023-02-01T17:24:49;83.53;;;37.20;;
30874;SDS011;17581;43.222;27.924;2023-02-01T17:27:15;100.95;;;39.08;;
30874;SDS011;17581;43.222;27.924;2023-02-01T17:29:45;95.55;;;41.20;;
30874;SDS011;17581;43.222;27.924;2023-02-01T17:32:16;73.97;;;31.50;;
30874;SDS011;17581;43.222;27.924;2023-02-01T17:37:26;64.28;;;30.05;;
30874;SDS011;17581;43.222;27.924;2023-02-01T17:39:54;77.10;;;32.70;;
30874;SDS011;17581;43.222;27.924;2023-02-01T17:42:19;86.60;;;33.25;;
30874;SDS011;17581;43.222;27.924;2023-02-01T17:44:45;75.30;;;29.92;;
30874;SDS011;17581;43.222;27.924;2023-02-01T17:47:11;66.10;;;31.08;;
30874;SDS011;17581;43.222;27.924;2023-02-01T17:49:36;62.95;;;26.15;;
30874;SDS011;17581;43.222;27.924;2023-02-01T17:52:03;62.78;;;25.92;;
30874;SDS011;17581;43.222;27.924;2023-02-01T17:54:29;58.60;;;28.58;;